sensor_id;sensor_type;location;lat;lon;timestamp;P1;durP1;ratioP1;P2;durP2;ratioP2
67571;SDS011;54397;47.506;19.158;2023-02-28T00:00:37;12.97;;;8.50;;
67571;SDS011;54397;47.506;19.158;2023-02-28T00:04:01;12.73;;;8.17;;
67571;SDS011;54397;47.506;19.158;2023-02-28T00:07:24;12.47;;;6.90;;
67571;SDS011;54397;47.506;19.158;2023-02-28T00:10:47;15.07;;;8.03;;
67571;SDS011;54397;47.506;19.158;2023-02-28T00:14:12;13.57;;;7.83;;
67571;SDS011;54397;47.506;19.158;2023-02-28T00:17:36;17.40;;;8.57;;
67571;SDS011;54397;47.506;19.158;2023-02-28T00:20:58;12.70;;;7.70;;
67571;SDS011;54397;47.506;19.158;2023-02-28T00:24:22;13.33;;;8.13;;
67571;SDS011;54397;47.506;19.158;2023-02-28T00:27:44;14.73;;;7.87;;
67571;SDS011;54397;47.506;19.158;2023-02-28T00:31:06;16.60;;;8.10;;
67571;SDS011;54397;47.506;19.158;2023-02-28T00:34:30;14.97;;;8.60;;
67571;SDS011;54397;47.506;19.158;2023-02-28T00:37:52;17.00;;;8.20;;
67571;SDS011;54397;47.506;19.158;2023-02-28T00:41:13;17.20;;;8.63;;
67571;SDS011;54397;47.506;19.158;2023-02-28T00:44:35;14.83;;;8.67;;
67571;SDS011;54397;47.506;19.158;2023-02-28T00:47:59;15.17;;;9.00;;
67571;SDS011;54397;47.506;19.158;2023-02-28T00:51:21;17.10;;;9.13;;
67571;SDS011;54397;47.506;19.158;2023-02-28T00:54:48;12.70;;;8.57;;
67571;SDS011;54397;47.506;19.158;2023-02-28T00:58:09;15.57;;;8.63;;
67571;SDS011;54397;47.506;19.158;2023-02-28T01:01:31;14.33;;;8.73;;
67571;SDS011;54397;47.506;19.158;2023-02-28T01:04:53;15.50;;;8.97;;
67571;SDS011;54397;47.506;19.158;2023-02-28T01:08:15;14.87;;;8.80;;
67571;SDS011;54397;47.506;19.158;2023-02-28T01:11:41;17.17;;;8.63;;
67571;SDS011;54397;47.506;19.158;2023-02-28T01:15:05;13.13;;;8.87;;
67571;SDS011;54397;47.506;19.158;2023-02-28T01:18:30;14.37;;;8.97;;
67571;SDS011;54397;47.506;19.158;2023-02-28T01:21:52;14.50;;;8.83;;
67571;SDS011;54397;47.506;19.158;2023-02-28T01:25:14;15.07;;;8.57;;
67571;SDS011;54397;47.506;19.158;2023-02-28T01:28:36;15.40;;;8.93;;
67571;SDS011;54397;47.506;19.158;2023-02-28T01:31:58;13.20;;;8.47;;
67571;SDS011;54397;47.506;19.158;2023-02-28T01:35:20;15.63;;;9.50;;
67571;SDS011;54397;47.506;19.158;2023-02-28T01:38:44;17.17;;;10.33;;
67571;SDS011;54397;47.506;19.158;2023-02-28T01:42:09;18.57;;;9.93;;
67571;SDS011;54397;47.506;19.158;2023-02-28T01:45:31;16.23;;;10.50;;
67571;SDS011;54397;47.506;19.158;2023-02-28T01:52:28;18.90;;;10.77;;
67571;SDS011;54397;47.506;19.158;2023-02-28T01:55:51;14.87;;;10.27;;
67571;SDS011;54397;47.506;19.158;2023-02-28T01:59:19;15.13;;;9.17;;
67571;SDS011;54397;47.506;19.158;2023-02-28T02:02:48;18.70;;;10.23;;
67571;SDS011;54397;47.506;19.158;2023-02-28T02:06:12;16.53;;;10.03;;
67571;SDS011;54397;47.506;19.158;2023-02-28T02:09:34;20.27;;;10.23;;
67571;SDS011;54397;47.506;19.158;2023-02-28T02:43:26;14.80;;;9.60;;
67571;SDS011;54397;47.506;19.158;2023-02-28T02:47:01;14.67;;;9.73;;
67571;SDS011;54397;47.506;19.158;2023-02-28T02:50:30;16.83;;;10.13;;
67571;SDS011;54397;47.506;19.158;2023-02-28T02:57:35;18.83;;;8.80;;
67571;SDS011;54397;47.506;19.158;2023-02-28T03:01:02;15.00;;;8.63;;
67571;SDS011;54397;47.506;19.158;2023-02-28T03:04:29;16.43;;;9.43;;
67571;SDS011;54397;47.506;19.158;2023-02-28T03:07:54;14.53;;;9.33;;
67571;SDS011;54397;47.506;19.158;2023-02-28T03:11:16;15.77;;;9.60;;
67571;SDS011;54397;47.506;19.158;2023-02-28T03:14:53;16.37;;;10.17;;
67571;SDS011;54397;47.506;19.158;2023-02-28T03:18:45;17.40;;;10.30;;
67571;SDS011;54397;47.506;19.158;2023-02-28T03:26:07;14.48;;;9.25;;
67571;SDS011;54397;47.506;19.158;2023-02-28T03:29:42;15.63;;;9.43;;
67571;SDS011;54397;47.506;19.158;2023-02-28T03:33:12;14.95;;;9.23;;
67571;SDS011;54397;47.506;19.158;2023-02-28T03:36:42;15.23;;;9.30;;
67571;SDS011;54397;47.506;19.158;2023-02-28T03:40:15;13.63;;;9.20;;
67571;SDS011;54397;47.506;19.158;2023-02-28T03:43:41;14.77;;;9.10;;
67571;SDS011;54397;47.506;19.158;2023-02-28T03:50:40;16.73;;;9.97;;
67571;SDS011;54397;47.506;19.158;2023-02-28T03:54:05;14.50;;;8.57;;
67571;SDS011;54397;47.506;19.158;2023-02-28T03:57:43;17.10;;;9.03;;
67571;SDS011;54397;47.506;19.158;2023-02-28T04:04:51;15.18;;;9.48;;
67571;SDS011;54397;47.506;19.158;2023-02-28T04:08:15;17.27;;;9.10;;
67571;SDS011;54397;47.506;19.158;2023-02-28T04:11:40;14.30;;;9.10;;
67571;SDS011;54397;47.506;19.158;2023-02-28T04:15:03;12.63;;;8.27;;
67571;SDS011;54397;47.506;19.158;2023-02-28T04:18:29;15.17;;;8.60;;
67571;SDS011;54397;47.506;19.158;2023-02-28T04:21:53;14.90;;;8.73;;
67571;SDS011;54397;47.506;19.158;2023-02-28T04:25:14;13.10;;;8.63;;
67571;SDS011;54397;47.506;19.158;2023-02-28T04:28:36;19.13;;;9.13;;
67571;SDS011;54397;47.506;19.158;2023-02-28T04:32:01;14.03;;;8.57;;
67571;SDS011;54397;47.506;19.158;2023-02-28T04:35:26;11.73;;;8.13;;
67571;SDS011;54397;47.506;19.158;2023-02-28T04:38:48;12.60;;;7.93;;
67571;SDS011;54397;47.506;19.158;2023-02-28T04:42:12;46.07;;;24.63;;
67571;SDS011;54397;47.506;19.158;2023-02-28T04:45:34;15.17;;;9.57;;
67571;SDS011;54397;47.506;19.158;2023-02-28T04:48:56;13.93;;;7.97;;
67571;SDS011;54397;47.506;19.158;2023-02-28T04:52:22;11.67;;;7.40;;
67571;SDS011;54397;47.506;19.158;2023-02-28T04:55:47;12.50;;;7.73;;
67571;SDS011;54397;47.506;19.158;2023-02-28T04:59:08;14.40;;;7.63;;
67571;SDS011;54397;47.506;19.158;2023-02-28T05:02:30;16.20;;;8.33;;
67571;SDS011;54397;47.506;19.158;2023-02-28T05:05:52;13.10;;;8.17;;
67571;SDS011;54397;47.506;19.158;2023-02-28T05:09:16;13.83;;;8.53;;
67571;SDS011;54397;47.506;19.158;2023-02-28T05:12:40;16.97;;;11.37;;
67571;SDS011;54397;47.506;19.158;2023-02-28T05:16:02;12.60;;;7.97;;
67571;SDS011;54397;47.506;19.158;2023-02-28T05:19:26;10.73;;;7.60;;
67571;SDS011;54397;47.506;19.158;2023-02-28T05:22:52;10.83;;;6.90;;
67571;SDS011;54397;47.506;19.158;2023-02-28T05:26:14;11.73;;;7.40;;
67571;SDS011;54397;47.506;19.158;2023-02-28T05:29:38;13.30;;;6.73;;
67571;SDS011;54397;47.506;19.158;2023-02-28T05:33:02;10.93;;;6.90;;
67571;SDS011;54397;47.506;19.158;2023-02-28T05:36:24;10.77;;;6.97;;
67571;SDS011;54397;47.506;19.158;2023-02-28T05:39:48;16.07;;;6.97;;
67571;SDS011;54397;47.506;19.158;2023-02-28T05:43:12;10.93;;;6.83;;
67571;SDS011;54397;47.506;19.158;2023-02-28T05:46:34;13.90;;;7.30;;
67571;SDS011;54397;47.506;19.158;2023-02-28T05:49:56;12.10;;;7.03;;
67571;SDS011;54397;47.506;19.158;2023-02-28T05:53:20;13.07;;;6.37;;
67571;SDS011;54397;47.506;19.158;2023-02-28T05:56:42;11.80;;;7.43;;
67571;SDS011;54397;47.506;19.158;2023-02-28T06:00:06;39.87;;;21.13;;
67571;SDS011;54397;47.506;19.158;2023-02-28T06:03:31;12.80;;;7.37;;
67571;SDS011;54397;47.506;19.158;2023-02-28T06:06:53;10.80;;;6.33;;
67571;SDS011;54397;47.506;19.158;2023-02-28T06:10:18;17.27;;;6.73;;
67571;SDS011;54397;47.506;19.158;2023-02-28T06:13:43;14.00;;;6.57;;
67571;SDS011;54397;47.506;19.158;2023-02-28T06:17:04;13.43;;;6.77;;
67571;SDS011;54397;47.506;19.158;2023-02-28T06:20:27;10.50;;;6.30;;
67571;SDS011;54397;47.506;19.158;2023-02-28T06:23:52;10.13;;;6.07;;
67571;SDS011;54397;47.506;19.158;2023-02-28T06:27:14;9.83;;;5.93;;
67571;SDS011;54397;47.506;19.158;2023-02-28T06:30:41;11.10;;;6.90;;
67571;SDS011;54397;47.506;19.158;2023-02-28T06:34:06;17.37;;;7.07;;
67571;SDS011;54397;47.506;19.158;2023-02-28T06:37:28;10.90;;;6.80;;
67571;SDS011;54397;47.506;19.158;2023-02-28T06:40:53;12.00;;;6.90;;
67571;SDS011;54397;47.506;19.158;2023-02-28T06:44:16;13.70;;;6.80;;
67571;SDS011;54397;47.506;19.158;2023-02-28T06:47:39;11.87;;;6.17;;
67571;SDS011;54397;47.506;19.158;2023-02-28T06:51:06;11.40;;;6.53;;
67571;SDS011;54397;47.506;19.158;2023-02-28T06:54:28;12.67;;;6.30;;
67571;SDS011;54397;47.506;19.158;2023-02-28T06:57:49;13.93;;;6.53;;
67571;SDS011;54397;47.506;19.158;2023-02-28T07:01:12;23.67;;;10.93;;
67571;SDS011;54397;47.506;19.158;2023-02-28T07:04:34;9.90;;;5.67;;
67571;SDS011;54397;47.506;19.158;2023-02-28T07:08:01;11.50;;;6.50;;
67571;SDS011;54397;47.506;19.158;2023-02-28T07:11:25;13.43;;;6.10;;
67571;SDS011;54397;47.506;19.158;2023-02-28T07:14:48;13.53;;;5.87;;
67571;SDS011;54397;47.506;19.158;2023-02-28T07:18:10;9.03;;;6.30;;
67571;SDS011;54397;47.506;19.158;2023-02-28T07:21:32;13.13;;;5.60;;
67571;SDS011;54397;47.506;19.158;2023-02-28T07:24:54;9.33;;;6.20;;
67571;SDS011;54397;47.506;19.158;2023-02-28T07:28:15;9.93;;;5.57;;
67571;SDS011;54397;47.506;19.158;2023-02-28T07:31:40;21.27;;;7.37;;
67571;SDS011;54397;47.506;19.158;2023-02-28T07:35:01;28.57;;;14.47;;
67571;SDS011;54397;47.506;19.158;2023-02-28T07:38:23;10.20;;;6.40;;
67571;SDS011;54397;47.506;19.158;2023-02-28T07:41:47;10.60;;;6.00;;
67571;SDS011;54397;47.506;19.158;2023-02-28T07:45:11;12.27;;;6.37;;
67571;SDS011;54397;47.506;19.158;2023-02-28T07:48:32;9.53;;;5.97;;
67571;SDS011;54397;47.506;19.158;2023-02-28T07:51:54;9.47;;;5.63;;
67571;SDS011;54397;47.506;19.158;2023-02-28T07:55:18;9.00;;;5.93;;
67571;SDS011;54397;47.506;19.158;2023-02-28T07:58:40;11.70;;;5.43;;
67571;SDS011;54397;47.506;19.158;2023-02-28T08:02:03;10.07;;;5.50;;
67571;SDS011;54397;47.506;19.158;2023-02-28T08:05:25;9.17;;;5.73;;
67571;SDS011;54397;47.506;19.158;2023-02-28T08:08:49;8.57;;;5.03;;
67571;SDS011;54397;47.506;19.158;2023-02-28T08:12:11;8.67;;;5.00;;
67571;SDS011;54397;47.506;19.158;2023-02-28T08:15:33;12.80;;;5.40;;
67571;SDS011;54397;47.506;19.158;2023-02-28T08:18:55;10.90;;;5.67;;
67571;SDS011;54397;47.506;19.158;2023-02-28T08:22:19;9.47;;;6.13;;
67571;SDS011;54397;47.506;19.158;2023-02-28T08:25:40;9.80;;;5.60;;
67571;SDS011;54397;47.506;19.158;2023-02-28T08:29:02;7.23;;;4.37;;
67571;SDS011;54397;47.506;19.158;2023-02-28T08:32:24;7.20;;;4.77;;
67571;SDS011;54397;47.506;19.158;2023-02-28T08:35:54;6.73;;;4.57;;
67571;SDS011;54397;47.506;19.158;2023-02-28T08:39:16;6.67;;;4.67;;
67571;SDS011;54397;47.506;19.158;2023-02-28T08:42:39;10.93;;;4.23;;
67571;SDS011;54397;47.506;19.158;2023-02-28T08:46:00;10.17;;;4.80;;
67571;SDS011;54397;47.506;19.158;2023-02-28T08:49:25;7.87;;;4.20;;
67571;SDS011;54397;47.506;19.158;2023-02-28T08:52:49;7.13;;;4.20;;
67571;SDS011;54397;47.506;19.158;2023-02-28T08:56:13;5.77;;;4.20;;
67571;SDS011;54397;47.506;19.158;2023-02-28T08:59:37;7.70;;;4.87;;
67571;SDS011;54397;47.506;19.158;2023-02-28T09:02:59;8.83;;;4.97;;
67571;SDS011;54397;47.506;19.158;2023-02-28T09:06:22;8.23;;;4.70;;
67571;SDS011;54397;47.506;19.158;2023-02-28T09:09:45;10.93;;;4.30;;
67571;SDS011;54397;47.506;19.158;2023-02-28T09:13:15;9.20;;;4.53;;
67571;SDS011;54397;47.506;19.158;2023-02-28T09:16:36;7.03;;;4.23;;
67571;SDS011;54397;47.506;19.158;2023-02-28T09:19:58;6.37;;;4.13;;
67571;SDS011;54397;47.506;19.158;2023-02-28T09:23:22;7.87;;;4.20;;
67571;SDS011;54397;47.506;19.158;2023-02-28T09:26:45;10.43;;;4.37;;
67571;SDS011;54397;47.506;19.158;2023-02-28T09:30:24;11.98;;;4.80;;
67571;SDS011;54397;47.506;19.158;2023-02-28T09:33:46;6.80;;;4.47;;
67571;SDS011;54397;47.506;19.158;2023-02-28T09:37:14;5.90;;;4.53;;
67571;SDS011;54397;47.506;19.158;2023-02-28T09:47:56;8.13;;;4.67;;
67571;SDS011;54397;47.506;19.158;2023-02-28T09:51:40;7.37;;;4.27;;
67571;SDS011;54397;47.506;19.158;2023-02-28T10:09:53;6.97;;;4.57;;
67571;SDS011;54397;47.506;19.158;2023-02-28T10:13:23;7.60;;;5.17;;
67571;SDS011;54397;47.506;19.158;2023-02-28T10:16:52;9.40;;;4.80;;
67571;SDS011;54397;47.506;19.158;2023-02-28T10:20:34;8.20;;;4.80;;
67571;SDS011;54397;47.506;19.158;2023-02-28T10:24:10;8.00;;;5.10;;
67571;SDS011;54397;47.506;19.158;2023-02-28T10:27:54;11.60;;;5.67;;
67571;SDS011;54397;47.506;19.158;2023-02-28T10:31:35;9.00;;;4.70;;
67571;SDS011;54397;47.506;19.158;2023-02-28T10:35:01;7.97;;;5.03;;
67571;SDS011;54397;47.506;19.158;2023-02-28T10:38:29;8.13;;;5.00;;
67571;SDS011;54397;47.506;19.158;2023-02-28T10:41:55;8.77;;;4.80;;
67571;SDS011;54397;47.506;19.158;2023-02-28T10:45:19;7.80;;;5.10;;
67571;SDS011;54397;47.506;19.158;2023-02-28T10:48:45;6.73;;;4.20;;
67571;SDS011;54397;47.506;19.158;2023-02-28T10:52:37;7.13;;;4.33;;
67571;SDS011;54397;47.506;19.158;2023-02-28T10:59:30;6.47;;;4.67;;
67571;SDS011;54397;47.506;19.158;2023-02-28T11:02:52;5.70;;;4.10;;
67571;SDS011;54397;47.506;19.158;2023-02-28T11:06:33;6.53;;;4.70;;
67571;SDS011;54397;47.506;19.158;2023-02-28T11:09:56;6.90;;;4.53;;
67571;SDS011;54397;47.506;19.158;2023-02-28T11:13:20;7.40;;;4.50;;
67571;SDS011;54397;47.506;19.158;2023-02-28T11:16:44;6.00;;;4.27;;
67571;SDS011;54397;47.506;19.158;2023-02-28T11:20:06;5.87;;;3.90;;
67571;SDS011;54397;47.506;19.158;2023-02-28T11:23:40;11.00;;;5.00;;
67571;SDS011;54397;47.506;19.158;2023-02-28T11:27:05;5.47;;;3.80;;
67571;SDS011;54397;47.506;19.158;2023-02-28T11:33:52;9.73;;;3.90;;
67571;SDS011;54397;47.506;19.158;2023-02-28T11:37:16;6.00;;;3.63;;
67571;SDS011;54397;47.506;19.158;2023-02-28T11:40:45;10.10;;;3.55;;
67571;SDS011;54397;47.506;19.158;2023-02-28T11:48:23;8.10;;;4.00;;
67571;SDS011;54397;47.506;19.158;2023-02-28T11:51:54;11.47;;;3.40;;
67571;SDS011;54397;47.506;19.158;2023-02-28T12:06:21;5.45;;;3.22;;
67571;SDS011;54397;47.506;19.158;2023-02-28T12:29:09;7.95;;;3.78;;
67571;SDS011;54397;47.506;19.158;2023-02-28T12:32:38;5.90;;;3.80;;
67571;SDS011;54397;47.506;19.158;2023-02-28T12:36:08;7.40;;;4.07;;
67571;SDS011;54397;47.506;19.158;2023-02-28T12:39:38;7.22;;;4.18;;
67571;SDS011;54397;47.506;19.158;2023-02-28T12:43:11;5.85;;;4.07;;
67571;SDS011;54397;47.506;19.158;2023-02-28T12:46:54;5.13;;;3.97;;
67571;SDS011;54397;47.506;19.158;2023-02-28T12:50:20;8.90;;;4.20;;
67571;SDS011;54397;47.506;19.158;2023-02-28T13:01:22;9.38;;;3.50;;
67571;SDS011;54397;47.506;19.158;2023-02-28T13:04:55;8.30;;;3.45;;
67571;SDS011;54397;47.506;19.158;2023-02-28T13:12:14;8.05;;;3.83;;
67571;SDS011;54397;47.506;19.158;2023-02-28T13:15:38;5.75;;;3.42;;
67571;SDS011;54397;47.506;19.158;2023-02-28T13:19:09;4.28;;;3.22;;
67571;SDS011;54397;47.506;19.158;2023-02-28T13:22:42;6.38;;;3.13;;
67571;SDS011;54397;47.506;19.158;2023-02-28T13:26:13;10.35;;;3.63;;
67571;SDS011;54397;47.506;19.158;2023-02-28T13:29:42;7.13;;;3.17;;
67571;SDS011;54397;47.506;19.158;2023-02-28T13:36:50;6.00;;;3.38;;
67571;SDS011;54397;47.506;19.158;2023-02-28T13:40:32;3.80;;;3.17;;
67571;SDS011;54397;47.506;19.158;2023-02-28T13:50:51;7.95;;;3.58;;
67571;SDS011;54397;47.506;19.158;2023-02-28T14:05:18;7.57;;;3.75;;
67571;SDS011;54397;47.506;19.158;2023-02-28T14:16:13;7.68;;;5.03;;
67571;SDS011;54397;47.506;19.158;2023-02-28T14:19:39;10.50;;;4.65;;
67571;SDS011;54397;47.506;19.158;2023-02-28T14:30:47;14.13;;;4.32;;
67571;SDS011;54397;47.506;19.158;2023-02-28T14:34:26;9.18;;;4.10;;
67571;SDS011;54397;47.506;19.158;2023-02-28T14:37:57;92.00;;;8.57;;
67571;SDS011;54397;47.506;19.158;2023-02-28T14:41:30;35.70;;;5.50;;
67571;SDS011;54397;47.506;19.158;2023-02-28T14:44:56;77.20;;;8.75;;
67571;SDS011;54397;47.506;19.158;2023-02-28T14:48:18;7.93;;;5.72;;
67571;SDS011;54397;47.506;19.158;2023-02-28T14:51:41;11.68;;;5.40;;
67571;SDS011;54397;47.506;19.158;2023-02-28T14:55:09;8.60;;;5.38;;
67571;SDS011;54397;47.506;19.158;2023-02-28T14:58:36;8.63;;;5.20;;
67571;SDS011;54397;47.506;19.158;2023-02-28T15:02:19;9.57;;;5.47;;
67571;SDS011;54397;47.506;19.158;2023-02-28T15:05:47;8.13;;;5.03;;
67571;SDS011;54397;47.506;19.158;2023-02-28T15:09:16;5.93;;;4.53;;
67571;SDS011;54397;47.506;19.158;2023-02-28T15:12:39;10.18;;;4.88;;
67571;SDS011;54397;47.506;19.158;2023-02-28T15:16:08;8.88;;;5.45;;
67571;SDS011;54397;47.506;19.158;2023-02-28T15:19:36;10.52;;;4.82;;
67571;SDS011;54397;47.506;19.158;2023-02-28T15:23:05;7.32;;;5.20;;
67571;SDS011;54397;47.506;19.158;2023-02-28T15:26:42;7.80;;;5.25;;
67571;SDS011;54397;47.506;19.158;2023-02-28T15:30:08;10.82;;;5.20;;
67571;SDS011;54397;47.506;19.158;2023-02-28T15:33:38;22.48;;;13.43;;
67571;SDS011;54397;47.506;19.158;2023-02-28T15:40:57;8.77;;;5.20;;
67571;SDS011;54397;47.506;19.158;2023-02-28T15:47:46;6.20;;;5.03;;
67571;SDS011;54397;47.506;19.158;2023-02-28T15:51:12;10.73;;;5.33;;
67571;SDS011;54397;47.506;19.158;2023-02-28T15:54:49;6.97;;;5.00;;
67571;SDS011;54397;47.506;19.158;2023-02-28T15:58:14;9.33;;;5.87;;
67571;SDS011;54397;47.506;19.158;2023-02-28T16:01:39;11.67;;;5.93;;
67571;SDS011;54397;47.506;19.158;2023-02-28T16:08:29;7.60;;;5.18;;
67571;SDS011;54397;47.506;19.158;2023-02-28T16:11:51;11.67;;;6.20;;
67571;SDS011;54397;47.506;19.158;2023-02-28T16:18:49;9.50;;;5.73;;
67571;SDS011;54397;47.506;19.158;2023-02-28T16:22:11;11.03;;;5.70;;
67571;SDS011;54397;47.506;19.158;2023-02-28T16:25:35;12.00;;;5.47;;
67571;SDS011;54397;47.506;19.158;2023-02-28T16:29:00;8.10;;;6.00;;
67571;SDS011;54397;47.506;19.158;2023-02-28T16:32:22;12.30;;;5.33;;
67571;SDS011;54397;47.506;19.158;2023-02-28T16:35:46;10.00;;;6.10;;
67571;SDS011;54397;47.506;19.158;2023-02-28T16:39:08;8.50;;;5.93;;
67571;SDS011;54397;47.506;19.158;2023-02-28T16:42:35;12.57;;;7.57;;
67571;SDS011;54397;47.506;19.158;2023-02-28T16:45:59;9.63;;;5.87;;
67571;SDS011;54397;47.506;19.158;2023-02-28T16:49:22;9.57;;;6.10;;
67571;SDS011;54397;47.506;19.158;2023-02-28T16:52:44;8.40;;;6.27;;
67571;SDS011;54397;47.506;19.158;2023-02-28T16:56:06;10.13;;;6.60;;
67571;SDS011;54397;47.506;19.158;2023-02-28T16:59:40;9.77;;;6.40;;
67571;SDS011;54397;47.506;19.158;2023-02-28T17:03:01;15.33;;;6.73;;
67571;SDS011;54397;47.506;19.158;2023-02-28T17:06:27;8.87;;;6.63;;
67571;SDS011;54397;47.506;19.158;2023-02-28T17:09:50;11.60;;;6.97;;
67571;SDS011;54397;47.506;19.158;2023-02-28T17:13:16;10.50;;;7.20;;
67571;SDS011;54397;47.506;19.158;2023-02-28T17:16:38;9.13;;;6.80;;
67571;SDS011;54397;47.506;19.158;2023-02-28T17:20:03;11.17;;;6.83;;
67571;SDS011;54397;47.506;19.158;2023-02-28T17:23:26;11.03;;;6.53;;
67571;SDS011;54397;47.506;19.158;2023-02-28T17:26:48;10.93;;;7.27;;
67571;SDS011;54397;47.506;19.158;2023-02-28T17:30:15;9.77;;;6.87;;
67571;SDS011;54397;47.506;19.158;2023-02-28T17:33:39;12.60;;;7.15;;
67571;SDS011;54397;47.506;19.158;2023-02-28T17:37:03;14.97;;;8.30;;
67571;SDS011;54397;47.506;19.158;2023-02-28T17:40:26;15.03;;;7.80;;
67571;SDS011;54397;47.506;19.158;2023-02-28T17:43:50;10.87;;;7.57;;
67571;SDS011;54397;47.506;19.158;2023-02-28T17:47:12;16.20;;;8.17;;
67571;SDS011;54397;47.506;19.158;2023-02-28T17:50:34;11.87;;;7.77;;
67571;SDS011;54397;47.506;19.158;2023-02-28T17:53:56;13.33;;;8.17;;
67571;SDS011;54397;47.506;19.158;2023-02-28T17:57:20;12.00;;;8.37;;
67571;SDS011;54397;47.506;19.158;2023-02-28T18:00:42;11.53;;;6.53;;
67571;SDS011;54397;47.506;19.158;2023-02-28T18:04:04;13.40;;;8.27;;
67571;SDS011;54397;47.506;19.158;2023-02-28T18:07:28;10.90;;;7.67;;
67571;SDS011;54397;47.506;19.158;2023-02-28T18:10:52;9.77;;;6.93;;
67571;SDS011;54397;47.506;19.158;2023-02-28T18:14:14;12.97;;;7.37;;
67571;SDS011;54397;47.506;19.158;2023-02-28T18:17:37;10.37;;;6.70;;
67571;SDS011;54397;47.506;19.158;2023-02-28T18:20:58;12.03;;;7.70;;
67571;SDS011;54397;47.506;19.158;2023-02-28T18:24:25;8.73;;;6.57;;
67571;SDS011;54397;47.506;19.158;2023-02-28T18:27:49;12.00;;;7.53;;
67571;SDS011;54397;47.506;19.158;2023-02-28T18:31:16;13.33;;;7.50;;
67571;SDS011;54397;47.506;19.158;2023-02-28T18:34:39;11.70;;;7.27;;
67571;SDS011;54397;47.506;19.158;2023-02-28T18:38:06;13.50;;;7.80;;
67571;SDS011;54397;47.506;19.158;2023-02-28T18:41:28;13.67;;;7.67;;
67571;SDS011;54397;47.506;19.158;2023-02-28T18:44:49;11.37;;;8.07;;
67571;SDS011;54397;47.506;19.158;2023-02-28T18:48:11;29.77;;;16.73;;
67571;SDS011;54397;47.506;19.158;2023-02-28T18:51:35;16.63;;;10.43;;
67571;SDS011;54397;47.506;19.158;2023-02-28T18:54:57;14.33;;;7.57;;
67571;SDS011;54397;47.506;19.158;2023-02-28T18:58:22;12.43;;;7.40;;
67571;SDS011;54397;47.506;19.158;2023-02-28T19:01:43;10.73;;;6.77;;
67571;SDS011;54397;47.506;19.158;2023-02-28T19:05:06;8.83;;;6.83;;
67571;SDS011;54397;47.506;19.158;2023-02-28T19:08:32;9.20;;;7.13;;
67571;SDS011;54397;47.506;19.158;2023-02-28T19:11:56;11.47;;;7.40;;
67571;SDS011;54397;47.506;19.158;2023-02-28T19:15:17;10.90;;;7.97;;
67571;SDS011;54397;47.506;19.158;2023-02-28T19:18:39;14.20;;;8.80;;
67571;SDS011;54397;47.506;19.158;2023-02-28T19:22:01;14.23;;;10.00;;
67571;SDS011;54397;47.506;19.158;2023-02-28T19:25:23;16.10;;;10.80;;
67571;SDS011;54397;47.506;19.158;2023-02-28T19:28:44;18.30;;;9.83;;
67571;SDS011;54397;47.506;19.158;2023-02-28T19:32:07;13.47;;;9.37;;
67571;SDS011;54397;47.506;19.158;2023-02-28T19:35:31;13.40;;;8.37;;
67571;SDS011;54397;47.506;19.158;2023-02-28T19:38:53;14.67;;;8.93;;
67571;SDS011;54397;47.506;19.158;2023-02-28T19:42:15;13.40;;;8.80;;
67571;SDS011;54397;47.506;19.158;2023-02-28T19:45:38;21.57;;;13.03;;
67571;SDS011;54397;47.506;19.158;2023-02-28T19:48:59;16.00;;;10.60;;
67571;SDS011;54397;47.506;19.158;2023-02-28T19:52:22;15.53;;;9.23;;
67571;SDS011;54397;47.506;19.158;2023-02-28T19:55:45;15.67;;;10.33;;
67571;SDS011;54397;47.506;19.158;2023-02-28T19:59:07;18.63;;;11.43;;
67571;SDS011;54397;47.506;19.158;2023-02-28T20:02:42;21.53;;;13.73;;
67571;SDS011;54397;47.506;19.158;2023-02-28T20:06:06;24.13;;;13.47;;
67571;SDS011;54397;47.506;19.158;2023-02-28T20:09:36;28.50;;;18.03;;
67571;SDS011;54397;47.506;19.158;2023-02-28T20:12:58;27.83;;;17.40;;
67571;SDS011;54397;47.506;19.158;2023-02-28T20:16:19;30.10;;;19.10;;
67571;SDS011;54397;47.506;19.158;2023-02-28T20:19:41;32.40;;;18.77;;
67571;SDS011;54397;47.506;19.158;2023-02-28T20:23:03;30.37;;;19.63;;
67571;SDS011;54397;47.506;19.158;2023-02-28T20:26:25;34.63;;;19.00;;
67571;SDS011;54397;47.506;19.158;2023-02-28T20:29:49;33.90;;;18.43;;
67571;SDS011;54397;47.506;19.158;2023-02-28T20:33:11;32.70;;;17.70;;
67571;SDS011;54397;47.506;19.158;2023-02-28T20:36:33;30.43;;;15.13;;
67571;SDS011;54397;47.506;19.158;2023-02-28T20:39:58;23.50;;;13.10;;
67571;SDS011;54397;47.506;19.158;2023-02-28T20:43:20;23.87;;;12.40;;
67571;SDS011;54397;47.506;19.158;2023-02-28T20:46:42;26.97;;;13.63;;
67571;SDS011;54397;47.506;19.158;2023-02-28T20:50:04;29.73;;;12.90;;
67571;SDS011;54397;47.506;19.158;2023-02-28T20:53:34;19.97;;;12.10;;
67571;SDS011;54397;47.506;19.158;2023-02-28T20:56:56;16.20;;;10.73;;
67571;SDS011;54397;47.506;19.158;2023-02-28T21:00:19;20.37;;;12.50;;
67571;SDS011;54397;47.506;19.158;2023-02-28T21:03:49;16.60;;;11.00;;
67571;SDS011;54397;47.506;19.158;2023-02-28T21:07:12;22.40;;;11.93;;
67571;SDS011;54397;47.506;19.158;2023-02-28T21:10:36;22.03;;;13.20;;
67571;SDS011;54397;47.506;19.158;2023-02-28T21:14:00;23.17;;;14.53;;
67571;SDS011;54397;47.506;19.158;2023-02-28T21:17:23;24.60;;;14.47;;
67571;SDS011;54397;47.506;19.158;2023-02-28T21:20:45;27.53;;;15.53;;
67571;SDS011;54397;47.506;19.158;2023-02-28T21:24:09;28.03;;;15.70;;
67571;SDS011;54397;47.506;19.158;2023-02-28T21:27:34;24.23;;;15.87;;
67571;SDS011;54397;47.506;19.158;2023-02-28T21:30:59;27.37;;;15.63;;
67571;SDS011;54397;47.506;19.158;2023-02-28T21:34:31;23.90;;;14.97;;
67571;SDS011;54397;47.506;19.158;2023-02-28T21:37:56;23.20;;;14.83;;
67571;SDS011;54397;47.506;19.158;2023-02-28T21:41:18;29.10;;;14.53;;
67571;SDS011;54397;47.506;19.158;2023-02-28T21:44:41;26.30;;;14.53;;
67571;SDS011;54397;47.506;19.158;2023-02-28T21:48:03;23.77;;;15.17;;
67571;SDS011;54397;47.506;19.158;2023-02-28T21:51:26;25.93;;;15.70;;
67571;SDS011;54397;47.506;19.158;2023-02-28T21:54:51;26.43;;;15.23;;
67571;SDS011;54397;47.506;19.158;2023-02-28T21:58:13;26.67;;;14.87;;
67571;SDS011;54397;47.506;19.158;2023-02-28T22:01:39;23.60;;;14.53;;
67571;SDS011;54397;47.506;19.158;2023-02-28T22:05:05;25.93;;;14.53;;
67571;SDS011;54397;47.506;19.158;2023-02-28T22:08:34;28.53;;;15.37;;
67571;SDS011;54397;47.506;19.158;2023-02-28T22:12:01;27.80;;;14.97;;
67571;SDS011;54397;47.506;19.158;2023-02-28T22:15:25;23.60;;;14.63;;
67571;SDS011;54397;47.506;19.158;2023-02-28T22:18:46;24.77;;;14.27;;
67571;SDS011;54397;47.506;19.158;2023-02-28T22:22:08;27.97;;;15.17;;
67571;SDS011;54397;47.506;19.158;2023-02-28T22:25:35;21.40;;;14.23;;
67571;SDS011;54397;47.506;19.158;2023-02-28T22:28:57;24.40;;;14.10;;
67571;SDS011;54397;47.506;19.158;2023-02-28T22:32:22;23.03;;;14.67;;
67571;SDS011;54397;47.506;19.158;2023-02-28T22:35:44;20.33;;;13.73;;
67571;SDS011;54397;47.506;19.158;2023-02-28T22:39:07;26.53;;;14.37;;
67571;SDS011;54397;47.506;19.158;2023-02-28T22:42:32;21.97;;;14.43;;
67571;SDS011;54397;47.506;19.158;2023-02-28T22:45:59;22.17;;;14.03;;
67571;SDS011;54397;47.506;19.158;2023-02-28T22:49:23;20.77;;;13.63;;
67571;SDS011;54397;47.506;19.158;2023-02-28T22:52:46;22.73;;;13.53;;
67571;SDS011;54397;47.506;19.158;2023-02-28T22:56:11;19.90;;;13.47;;